ABP711 LYBE-EETN
Flight info
| Callsign | ABP711 |
|---|---|
| Flight time | N/A |
| Altitude | 35000 |
| Route | TADAM4L/12L TISAK DCT PARAK DCT PITOK DCT KELEL DCT GOLAD/K0848F350 M159 KRAKI/N0458F350 DCT GUNTA DCT KEMET |
| Aircraft | E35L/M-SBDE1E2E3FGHIJ3J5M1P2RWXYZ/LB1D1 |
Departure
| Time | 2026-04-28 18:54 |
|---|---|
| Airport | Belgrade Nikola Tesla Airport (LYBE) |
Arrival
| Time | N/A |
|---|---|
| Airport | Lennart Meri Tallinn Airport (EETN) |
| Time | Latitude | Longitude | Altitude | Speed | Heading |
|---|---|---|---|---|---|
| 2026-04-28 18:30 | 44.81547 | 20.28990 | 341 ft | 0 kts | 32° |
| 2026-04-28 18:49 | 44.81555 | 20.28996 | 342 ft | 2 kts | 32° |
| 2026-04-28 18:49 | 44.81564 | 20.29054 | 342 ft | 6 kts | 64° |
| 2026-04-28 18:49 | 44.81611 | 20.29099 | 341 ft | 9 kts | 32° |
| 2026-04-28 18:50 | 44.81678 | 20.29159 | 342 ft | 12 kts | 33° |
| 2026-04-28 18:50 | 44.81693 | 20.29278 | 342 ft | 13 kts | 63° |
| 2026-04-28 18:50 | 44.81777 | 20.29362 | 342 ft | 16 kts | 31° |
| 2026-04-28 18:50 | 44.81869 | 20.29443 | 342 ft | 15 kts | 32° |
| 2026-04-28 18:51 | 44.81971 | 20.29533 | 342 ft | 17 kts | 31° |
| 2026-04-28 18:51 | 44.82067 | 20.29617 | 342 ft | 15 kts | 31° |
| 2026-04-28 18:51 | 44.82148 | 20.29685 | 342 ft | 13 kts | 25° |
| 2026-04-28 18:51 | 44.82214 | 20.29653 | 342 ft | 9 kts | 325° |
| 2026-04-28 18:52 | 44.82265 | 20.29670 | 342 ft | 6 kts | 33° |
| 2026-04-28 18:52 | 44.82310 | 20.29712 | 342 ft | 9 kts | 32° |
| 2026-04-28 18:52 | 44.82357 | 20.29765 | 342 ft | 4 kts | 89° |
| 2026-04-28 18:52 | 44.82350 | 20.29782 | 342 ft | 0 kts | 123° |
| 2026-04-28 18:53 | 44.82348 | 20.29787 | 342 ft | 0 kts | 123° |
| 2026-04-28 18:53 | 44.82340 | 20.29804 | 342 ft | 6 kts | 123° |
| 2026-04-28 18:53 | 44.82173 | 20.30182 | 342 ft | 91 kts | 121° |
| 2026-04-28 18:53 | 44.81701 | 20.31246 | 422 ft | 153 kts | 119° |
| 2026-04-28 18:54 | 44.81146 | 20.32566 | 1113 ft | 167 kts | 116° |